Domov               UVHVVR             MKGP            O straneh              
ZDRAVSTVENO VARSTVO RASTLIN
  MREŽA AGROMET. POSTAJ
 ► PROGNOSTIČNA OBVESTILA
AGROMETEOROLOŠKI PODATKI -
ARSO
OBVLADOVANJE TVEGANJ ZARADI
NEUGODNIH VREMENSKIH RAZMER
  ► NARAVNE NESREČE
  ► SUŠA/MOČA
  ► NAMAKANJE
  ► ŽLED (gozdarstvo)
KARTOGRAFSKI PRIKAZI
SPLETNE POVEZAVE
PROJEKTI IN PUBLIKACIJE

AGROMETEOROLOŠKA MREŽA: VREMENSKE POSTAJE IN FENOLOŠKA OPAZOVANJA

Pregled podatkov za lokacijo Kamnik, meteorološka postaja 41388

Pregled senzorjev na lokaciji

ID Ime Zadnja
vrednost
Datum
zadnje
spremembe
Tip
senzorja
4235 Omočenost lista (U) 6 U 23.7.2018 05:30 A730WET
4236 Padavine (mm) 0 mm 23.7.2018 05:30 Generic 0.2 mm
4238 Relativna vlaga 2 m (% RH) 98,17 % RH 23.7.2018 05:30 Generic 0 - 100 %
4237 Temperatura 2 m (°C) 16,41 °C 23.7.2018 05:30 Generic -40 - +60 °C

Pregled podatkov zadnjih 24 ur

Zap.
št.
Datum in čas Kamnik
Omočenost
lista
Padavine Relativna
vlaga
2
m
Temperatura
2
m
1 23.7.2018 05:30
2 23.7.2018 05:00
3 23.7.2018 04:30 6 0 98,2 16,4
4 23.7.2018 04:00 2 0 98,8 16,7
5 23.7.2018 03:30 6 0 99,5 16,9
6 23.7.2018 03:00 10 0 99,9 16,8
7 23.7.2018 02:30 10 0 99,5 16,7
8 23.7.2018 02:00 10 0 98,8 16,8
9 23.7.2018 01:30 10 0 99,1 16,9
10 23.7.2018 01:00 10 0 99,3 17
11 23.7.2018 00:30 10 0 99,3 17
12 23.7.2018 00:00 10 0 98,8 17,2
13 22.7.2018 23:30 10 0 99 17,4
14 22.7.2018 23:00 10 0 99,6 17,4
15 22.7.2018 22:30 10 0 99,4 17,4
16 22.7.2018 22:00 10 0 99,4 17,4
17 22.7.2018 21:30 10 0 99,4 17,5
18 22.7.2018 21:00 10 0 99,4 17,7
19 22.7.2018 20:30 10 0 98,9 17,7
20 22.7.2018 20:00 10 0 97,6 17,8
21 22.7.2018 19:30 10 0 97,8 18
22 22.7.2018 19:00 9 0 97,9 18,2
23 22.7.2018 18:30 9 0,2 97,4 18,1
24 22.7.2018 18:00 6 0,6 97,8 18
25 22.7.2018 17:30 6 0,6 96,7 18
26 22.7.2018 17:00 6 1 95,7 18,2
27 22.7.2018 16:30 6 0,8 94,7 17,9
28 22.7.2018 16:00 6 1,6 87,9 18,6
29 22.7.2018 15:30 9 1,2 83,8 19,9
30 22.7.2018 15:00 4 0,6 81,1 21,7
31 22.7.2018 14:30 8 0,6 69,8 24,1
32 22.7.2018 14:00 0 0 57,1 26,5
33 22.7.2018 13:30 0 0 59 25,5
34 22.7.2018 13:00 0 0 68,3 24,3
35 22.7.2018 12:30 0 0,2 72,2 23,3
36 22.7.2018 12:00 0 0 71,6 24
37 22.7.2018 11:30 0 0 69,1 24,5
38 22.7.2018 11:00 0 0 73,7 23,5
39 22.7.2018 10:30 0 0 77,3 22,5
40 22.7.2018 10:00 0 0 82,8 21,2
41 22.7.2018 09:30 0 0 83,3 20,8
42 22.7.2018 09:00 0 0 84,6 20,5
43 22.7.2018 08:30 0 0 87,7 19,6
44 22.7.2018 08:00 3 0 91,5 18,6
45 22.7.2018 07:30 9 0 93,4 18
46 22.7.2018 07:00 10 0 95,7 17,5
47 22.7.2018 06:30 10 0 96,8 17,2
48 22.7.2018 06:00 10 0 98,5 16,8
© 2011 Ministrstvo za kmetijstvo, gozdarstvo in prehrano. Vse pravice pridržane.